Time;durP1;ratioP1;P1;durP2;ratioP2;P2;SDS_P1;SDS_P2;PMS_P1;PMS_P2;Temp;Humidity;BMP_temperature;BMP_pressure;BME280_temperature;BME280_humidity;BME280_pressure;Samples;Min_cycle;Max_cycle;Signal;HPM_P1;HPM_P2
2022/12/15 00:39:06;;;;;;;2.23;2.23;;;;;;;;;;6238076;28;20477;-75
2022/12/15 00:42:13;;;;;;;2.30;2.20;;;;;;;;;;6238240;28;20280;-75
2022/12/15 00:45:20;;;;;;;2.20;1.93;;;;;;;;;;6236853;28;20308;-75
2022/12/15 00:48:25;;;;;;;1.90;1.90;;;;;;;;;;6238270;28;20293;-75
2022/12/15 01:21:58;;;;;;;1.90;1.90;;;;;;;;;;6237558;28;20308;-75
2022/12/15 01:25:04;;;;;;;2.13;2.03;;;;;;;;;;6237105;28;20299;-75
2022/12/15 01:28:11;;;;;;;2.17;2.17;;;;;;;;;;6236967;28;20474;-75
2022/12/15 01:31:16;;;;;;;2.50;2.30;;;;;;;;;;6236199;28;20303;-74
2022/12/15 01:34:23;;;;;;;2.00;2.00;;;;;;;;;;6236340;28;20459;-74
2022/12/15 01:37:28;;;;;;;2.53;2.37;;;;;;;;;;6236815;28;20271;-75
2022/12/15 01:40:45;;;;;;;2.47;2.37;;;;;;;;;;6236503;28;20458;-74
2022/12/15 01:43:50;;;;;;;2.23;2.13;;;;;;;;;;6236356;28;20264;-74
2022/12/15 01:46:56;;;;;;;2.23;2.13;;;;;;;;;;6236850;28;20279;-74
2022/12/15 01:50:04;;;;;;;1.90;1.90;;;;;;;;;;6235528;28;20296;-74
2022/12/15 01:53:10;;;;;;;2.30;2.20;;;;;;;;;;6270750;28;20261;-75
2022/12/15 01:56:16;;;;;;;2.23;2.17;;;;;;;;;;6236634;28;20473;-74
2022/12/15 01:59:23;;;;;;;1.83;1.83;;;;;;;;;;6236519;28;20307;-75
2022/12/15 02:06:23;;;;;;;2.37;2.27;;;;;;;;;;6244486;23;20302;-75
2022/12/15 02:09:28;;;;;;;2.10;2.00;;;;;;;;;;6163488;29;20301;-75
2022/12/15 02:12:40;;;;;;;2.20;2.10;;;;;;;;;;6163866;29;20273;-75
2022/12/15 02:15:50;;;;;;;2.47;2.27;;;;;;;;;;6186734;28;20309;-74
2022/12/15 02:19:01;;;;;;;2.10;2.00;;;;;;;;;;6186732;28;20300;-75
2022/12/15 02:22:17;;;;;;;2.17;2.07;;;;;;;;;;6180885;28;20267;-74
2022/12/15 02:25:45;;;;;;;2.40;2.30;;;;;;;;;;6162646;29;20294;-74
2022/12/15 02:29:01;;;;;;;2.47;2.37;;;;;;;;;;6162715;28;20591;-75
2022/12/15 02:32:10;;;;;;;2.03;2.00;;;;;;;;;;6162970;29;20273;-75
2022/12/15 02:35:20;;;;;;;2.23;2.13;;;;;;;;;;6162878;28;20305;-74
2022/12/15 02:38:33;;;;;;;2.20;2.00;;;;;;;;;;6163346;28;20278;-76
2022/12/15 02:41:41;;;;;;;2.10;2.10;;;;;;;;;;6186429;28;20277;-74
2022/12/15 02:44:48;;;;;;;2.30;2.20;;;;;;;;;;6186572;28;20301;-75
2022/12/15 02:48:02;;;;;;;2.07;2.07;;;;;;;;;;6186805;28;20289;-74
2022/12/15 02:51:20;;;;;;;2.30;2.20;;;;;;;;;;6186250;28;20296;-75
2022/12/15 02:54:42;;;;;;;2.23;2.13;;;;;;;;;;6186120;28;20296;-75
2022/12/15 02:57:53;;;;;;;2.53;2.37;;;;;;;;;;6186882;28;20276;-75
2022/12/15 03:01:01;;;;;;;2.23;2.23;;;;;;;;;;6188726;28;20320;-74
2022/12/15 03:04:09;;;;;;;2.37;2.30;;;;;;;;;;6191150;28;20292;-74
2022/12/15 03:07:14;;;;;;;2.40;2.30;;;;;;;;;;6191453;28;20465;-74
2022/12/15 03:10:22;;;;;;;2.30;2.30;;;;;;;;;;6191030;28;20299;-74
2022/12/15 03:13:30;;;;;;;2.47;2.27;;;;;;;;;;6166253;28;20277;-75
2022/12/15 03:16:35;;;;;;;2.47;2.40;;;;;;;;;;6166700;29;20313;-74
2022/12/15 03:19:41;;;;;;;3.37;2.43;;;;;;;;;;6149929;29;20309;-75
2022/12/15 03:22:46;;;;;;;2.30;2.30;;;;;;;;;;6167609;29;20287;-75
2022/12/15 03:25:51;;;;;;;2.30;2.20;;;;;;;;;;6166829;28;20312;-74
2022/12/15 03:29:00;;;;;;;2.37;2.30;;;;;;;;;;6166297;28;20295;-76
2022/12/15 03:32:05;;;;;;;2.43;2.33;;;;;;;;;;6167540;29;20269;-75
2022/12/15 03:35:12;;;;;;;2.30;2.30;;;;;;;;;;6166686;28;20301;-75
2022/12/15 03:38:18;;;;;;;2.63;2.30;;;;;;;;;;6166912;29;20292;-74
2022/12/15 03:41:22;;;;;;;2.37;2.17;;;;;;;;;;6166611;28;20301;-74
2022/12/15 03:44:27;;;;;;;2.87;2.77;;;;;;;;;;6166119;28;20313;-75
2022/12/15 03:47:32;;;;;;;2.60;2.40;;;;;;;;;;6166687;28;20277;-74
2022/12/15 03:50:39;;;;;;;3.00;2.90;;;;;;;;;;6165759;28;20304;-74
2022/12/15 03:53:46;;;;;;;3.03;2.83;;;;;;;;;;6166615;28;20276;-74
2022/12/15 03:56:51;;;;;;;2.90;2.80;;;;;;;;;;6166595;29;20448;-74
2022/12/15 03:59:56;;;;;;;2.40;2.40;;;;;;;;;;6149675;29;20300;-74
2022/12/15 04:03:00;;;;;;;2.83;2.63;;;;;;;;;;6180563;28;20292;-75
2022/12/15 04:06:08;;;;;;;2.17;2.17;;;;;;;;;;6182844;28;20309;-74
2022/12/15 04:09:13;;;;;;;2.80;2.70;;;;;;;;;;6165517;28;20304;-74
2022/12/15 04:12:18;;;;;;;2.37;2.27;;;;;;;;;;6185689;28;20289;-74
2022/12/15 04:15:23;;;;;;;2.63;2.50;;;;;;;;;;6188791;28;20279;-74
2022/12/15 04:18:28;;;;;;;2.70;2.60;;;;;;;;;;6186989;28;20292;-75
2022/12/15 04:21:35;;;;;;;2.63;2.53;;;;;;;;;;6165623;29;20277;-74
2022/12/15 05:32:25;;;;;;;2.70;2.50;;;;;;;;;;6163229;29;20295;-74
2022/12/15 05:35:30;;;;;;;2.80;2.70;;;;;;;;;;6164501;29;20275;-74
2022/12/15 05:38:35;;;;;;;3.23;3.03;;;;;;;;;;6163694;29;20308;-74
2022/12/15 05:41:40;;;;;;;3.30;2.83;;;;;;;;;;6164045;29;20555;-73
2022/12/15 05:44:46;;;;;;;3.27;3.07;;;;;;;;;;6163144;28;20591;-74
2022/12/15 05:47:53;;;;;;;3.00;2.90;;;;;;;;;;6163908;28;20296;-73
2022/12/15 05:51:02;;;;;;;2.87;2.70;;;;;;;;;;6164215;29;20586;-73
2022/12/15 05:54:07;;;;;;;2.87;2.60;;;;;;;;;;6163625;28;20304;-73
2022/12/15 05:57:13;;;;;;;3.27;3.17;;;;;;;;;;6162446;28;20275;-72
2022/12/15 06:00:20;;;;;;;3.50;3.37;;;;;;;;;;6163633;29;20273;-73
2022/12/15 06:03:25;;;;;;;2.50;2.40;;;;;;;;;;6163392;28;20296;-73
2022/12/15 06:06:30;;;;;;;3.63;3.33;;;;;;;;;;6163789;29;20601;-74
2022/12/15 06:09:35;;;;;;;4.83;3.13;;;;;;;;;;6164592;28;20304;-74
2022/12/15 06:12:40;;;;;;;2.90;2.80;;;;;;;;;;6187384;28;20302;-74
2022/12/15 06:15:56;;;;;;;3.20;3.00;;;;;;;;;;6187490;28;20280;-74
2022/12/15 06:19:03;;;;;;;3.00;2.90;;;;;;;;;;6187230;28;20480;-74
2022/12/15 06:22:10;;;;;;;2.60;2.50;;;;;;;;;;6186406;28;20280;-73
2022/12/15 06:25:16;;;;;;;2.73;2.63;;;;;;;;;;6187696;28;20325;-74
2022/12/15 06:28:22;;;;;;;2.47;2.37;;;;;;;;;;6187116;28;20298;-74
2022/12/15 06:31:29;;;;;;;3.43;3.13;;;;;;;;;;6187142;28;20300;-74
2022/12/15 06:34:34;;;;;;;3.00;2.80;;;;;;;;;;6186728;28;20303;-74
2022/12/15 06:37:39;;;;;;;3.43;3.13;;;;;;;;;;6169531;28;20294;-76
2022/12/15 06:40:53;;;;;;;3.20;2.57;;;;;;;;;;6187239;28;20272;-75
2022/12/15 06:44:11;;;;;;;2.90;2.70;;;;;;;;;;6187095;28;20307;-76
2022/12/15 06:47:18;;;;;;;4.40;3.10;;;;;;;;;;6169753;28;20271;-74
2022/12/15 06:50:23;;;;;;;3.10;2.90;;;;;;;;;;6187820;28;20299;-74
2022/12/15 06:53:28;;;;;;;3.43;2.97;;;;;;;;;;6186572;28;20308;-74
2022/12/15 06:56:35;;;;;;;3.37;3.17;;;;;;;;;;6187251;28;20275;-74
2022/12/15 06:59:40;;;;;;;3.23;3.03;;;;;;;;;;6186480;28;20300;-75
2022/12/15 07:02:46;;;;;;;3.37;3.27;;;;;;;;;;6186803;28;20287;-73
2022/12/15 07:06:02;;;;;;;3.27;2.93;;;;;;;;;;6186736;28;20598;-73
2022/12/15 07:09:10;;;;;;;7.20;3.67;;;;;;;;;;6186361;28;20306;-75
2022/12/15 07:12:17;;;;;;;3.67;3.37;;;;;;;;;;6163068;28;20282;-74
2022/12/15 07:15:21;;;;;;;3.63;3.33;;;;;;;;;;6163243;29;20272;-73
2022/12/15 07:18:29;;;;;;;3.90;3.60;;;;;;;;;;6145358;29;20299;-73
2022/12/15 07:21:34;;;;;;;7.80;4.20;;;;;;;;;;6162950;29;20283;-73
2022/12/15 07:24:39;;;;;;;3.83;3.53;;;;;;;;;;6162572;28;20304;-74
2022/12/15 07:27:44;;;;;;;4.17;3.97;;;;;;;;;;6162680;28;20393;-74
2022/12/15 07:30:49;;;;;;;3.97;3.77;;;;;;;;;;6163409;29;20300;-74
2022/12/15 07:33:57;;;;;;;5.33;4.20;;;;;;;;;;6162123;29;20306;-73
2022/12/15 07:37:02;;;;;;;4.00;3.60;;;;;;;;;;6145618;28;20273;-74
2022/12/15 07:40:09;;;;;;;5.53;3.80;;;;;;;;;;6162995;29;20267;-74
2022/12/15 07:43:14;;;;;;;5.17;4.20;;;;;;;;;;6162294;28;20291;-73
2022/12/15 07:46:20;;;;;;;8.70;4.27;;;;;;;;;;6163087;28;20361;-73
2022/12/15 07:49:26;;;;;;;4.20;3.90;;;;;;;;;;6166509;29;20295;-74
2022/12/15 07:52:31;;;;;;;5.60;4.90;;;;;;;;;;6166274;28;20305;-73
2022/12/15 07:55:36;;;;;;;4.33;3.93;;;;;;;;;;6166994;29;20271;-73
2022/12/15 07:59:02;;;;;;;3.97;3.67;;;;;;;;;;6166437;28;20485;-74
2022/12/15 08:02:07;;;;;;;4.47;4.10;;;;;;;;;;6166515;28;20272;-74
2022/12/15 08:05:14;;;;;;;6.60;4.27;;;;;;;;;;6166330;29;20299;-73
2022/12/15 08:08:19;;;;;;;4.30;3.93;;;;;;;;;;6166270;29;20305;-73
2022/12/15 08:11:24;;;;;;;4.63;4.20;;;;;;;;;;6182796;28;20287;-74
2022/12/15 08:14:31;;;;;;;4.20;3.90;;;;;;;;;;6190541;28;20302;-74
2022/12/15 08:17:36;;;;;;;4.70;4.30;;;;;;;;;;6189879;28;20551;-74
2022/12/15 08:20:42;;;;;;;4.33;4.03;;;;;;;;;;6190078;28;20275;-73
2022/12/15 08:23:54;;;;;;;4.53;4.17;;;;;;;;;;6189294;28;20294;-73
2022/12/15 08:26:59;;;;;;;4.27;3.97;;;;;;;;;;6190395;28;20284;-75
2022/12/15 08:30:05;;;;;;;4.37;3.70;;;;;;;;;;6172429;28;20271;-75
2022/12/15 08:33:11;;;;;;;4.70;3.97;;;;;;;;;;6189585;28;20303;-73
2022/12/15 08:36:20;;;;;;;4.03;3.67;;;;;;;;;;6189524;28;20599;-74
2022/12/15 08:39:25;;;;;;;3.77;3.53;;;;;;;;;;6189404;28;20299;-75
2022/12/15 08:42:33;;;;;;;4.00;3.70;;;;;;;;;;6189781;28;20370;-74
2022/12/15 08:45:41;;;;;;;4.33;3.97;;;;;;;;;;6189519;28;20272;-74
2022/12/15 08:48:47;;;;;;;4.00;3.80;;;;;;;;;;6189219;28;20485;-74
2022/12/15 08:51:53;;;;;;;5.43;4.50;;;;;;;;;;6189515;28;20292;-74
2022/12/15 08:54:58;;;;;;;8.67;4.83;;;;;;;;;;6171502;28;20299;-75
2022/12/15 08:58:03;;;;;;;5.57;4.20;;;;;;;;;;6188138;28;20295;-73
2022/12/15 09:01:12;;;;;;;4.97;4.30;;;;;;;;;;6189170;28;20285;-74
2022/12/15 09:04:26;;;;;;;6.80;4.20;;;;;;;;;;6188775;28;20308;-74
2022/12/15 09:07:33;;;;;;;4.33;4.03;;;;;;;;;;6188359;28;20316;-75
2022/12/15 09:10:41;;;;;;;5.97;4.43;;;;;;;;;;6178910;28;20269;-75
2022/12/15 09:13:46;;;;;;;5.53;4.20;;;;;;;;;;6164591;29;20301;-74
2022/12/15 09:16:51;;;;;;;3.73;3.43;;;;;;;;;;6147770;29;20276;-74
2022/12/15 09:19:56;;;;;;;8.53;4.40;;;;;;;;;;6147555;29;20301;-74
2022/12/15 09:23:04;;;;;;;4.77;3.97;;;;;;;;;;6147461;29;20292;-75
2022/12/15 09:26:11;;;;;;;11.63;6.23;;;;;;;;;;6164969;29;20276;-76
2022/12/15 09:29:17;;;;;;;7.30;4.90;;;;;;;;;;6164385;28;20567;-74
2022/12/15 09:32:22;;;;;;;6.80;5.10;;;;;;;;;;6164236;29;20300;-75
2022/12/15 09:35:27;;;;;;;10.80;5.20;;;;;;;;;;6164569;29;20556;-74
2022/12/15 09:38:36;;;;;;;16.23;8.63;;;;;;;;;;6164601;28;20310;-74
2022/12/15 09:41:42;;;;;;;8.03;6.37;;;;;;;;;;6165164;29;20280;-74
2022/12/15 09:44:48;;;;;;;9.20;5.87;;;;;;;;;;6163874;29;20304;-73
2022/12/15 09:47:56;;;;;;;8.90;4.97;;;;;;;;;;6164415;28;20297;-74
2022/12/15 09:51:03;;;;;;;7.53;4.47;;;;;;;;;;6164686;29;20650;-74
2022/12/15 09:54:11;;;;;;;4.80;4.30;;;;;;;;;;6147476;29;20309;-74
2022/12/15 09:57:24;;;;;;;6.37;5.03;;;;;;;;;;6164314;28;20273;-74
2022/12/15 10:00:33;;;;;;;7.03;5.13;;;;;;;;;;6146830;29;20274;-74
2022/12/15 10:03:49;;;;;;;8.87;6.67;;;;;;;;;;6163398;28;20301;-74
2022/12/15 10:07:00;;;;;;;18.77;8.13;;;;;;;;;;6164606;29;20258;-74
2022/12/15 10:10:09;;;;;;;10.00;7.23;;;;;;;;;;6167819;28;20350;-75
2022/12/15 10:13:22;;;;;;;11.00;6.97;;;;;;;;;;6187260;28;20296;-74
2022/12/15 10:16:31;;;;;;;8.80;6.00;;;;;;;;;;6187715;28;20273;-74
2022/12/15 10:19:39;;;;;;;9.10;5.83;;;;;;;;;;6186994;28;20299;-74
2022/12/15 10:22:44;;;;;;;8.23;5.70;;;;;;;;;;6170163;28;20305;-75
2022/12/15 10:26:00;;;;;;;6.60;5.00;;;;;;;;;;6187352;28;20284;-74
2022/12/15 10:29:17;;;;;;;8.27;5.27;;;;;;;;;;6170042;28;20236;-76
2022/12/15 10:32:29;;;;;;;5.80;4.40;;;;;;;;;;6186758;28;20585;-74
2022/12/15 10:35:38;;;;;;;5.87;5.27;;;;;;;;;;6169997;28;20275;-75
2022/12/15 10:38:46;;;;;;;6.93;5.23;;;;;;;;;;6186656;28;20297;-74
2022/12/15 10:42:16;;;;;;;5.70;4.53;;;;;;;;;;6187457;28;20556;-73
2022/12/15 10:45:38;;;;;;;4.87;4.53;;;;;;;;;;6185234;28;20277;-74
2022/12/15 10:48:44;;;;;;;6.07;4.80;;;;;;;;;;6186760;28;20302;-73
2022/12/15 10:51:54;;;;;;;8.23;5.27;;;;;;;;;;6187507;28;20277;-74
2022/12/15 10:55:00;;;;;;;5.50;5.00;;;;;;;;;;6170165;28;20300;-74
2022/12/15 10:58:22;;;;;;;8.60;4.80;;;;;;;;;;6186469;28;20288;-74
2022/12/15 11:01:29;;;;;;;13.00;5.70;;;;;;;;;;6186557;28;20274;-74
2022/12/15 11:04:34;;;;;;;15.83;6.30;;;;;;;;;;6185180;28;20316;-74
2022/12/15 11:07:41;;;;;;;9.03;5.30;;;;;;;;;;6187959;28;20301;-76
2022/12/15 11:14:22;;;;;;;6.00;5.40;;;;;;;;;;6186589;28;20599;-75
2022/12/15 11:17:36;;;;;;;5.23;4.73;;;;;;;;;;6186621;28;20591;-74
2022/12/15 11:20:45;;;;;;;6.30;4.50;;;;;;;;;;6188379;28;20343;-75
2022/12/15 11:23:59;;;;;;;5.30;4.43;;;;;;;;;;6190949;28;20300;-75
2022/12/15 11:27:12;;;;;;;6.20;5.23;;;;;;;;;;6190265;28;20273;-75
2022/12/15 11:30:21;;;;;;;9.80;5.07;;;;;;;;;;6191764;28;20269;-75
2022/12/15 11:33:26;;;;;;;9.77;5.30;;;;;;;;;;6191109;28;20464;-74
2022/12/15 11:36:51;;;;;;;8.27;5.10;;;;;;;;;;6191565;28;20586;-74
2022/12/15 11:40:05;;;;;;;14.13;5.43;;;;;;;;;;6190866;28;20309;-74
2022/12/15 11:43:42;;;;;;;9.77;4.90;;;;;;;;;;6189604;28;20289;-75
2022/12/15 11:46:55;;;;;;;6.20;5.13;;;;;;;;;;6173760;28;20277;-74
2022/12/15 11:50:20;;;;;;;5.27;4.43;;;;;;;;;;6189779;28;20305;-74
2022/12/15 11:53:53;;;;;;;6.83;5.30;;;;;;;;;;6190538;28;20304;-74
2022/12/15 11:57:17;;;;;;;4.97;4.57;;;;;;;;;;6190983;28;20482;-75
2022/12/15 12:00:23;;;;;;;4.67;4.27;;;;;;;;;;6190374;28;20269;-74
2022/12/15 12:03:34;;;;;;;4.90;4.37;;;;;;;;;;6190067;28;20293;-74
2022/12/15 12:06:45;;;;;;;4.90;4.50;;;;;;;;;;6173798;28;20305;-75
2022/12/15 12:10:03;;;;;;;4.53;4.10;;;;;;;;;;6169238;28;20301;-75
2022/12/15 12:13:14;;;;;;;4.83;4.43;;;;;;;;;;6165536;29;20310;-75
2022/12/15 12:16:27;;;;;;;4.47;4.10;;;;;;;;;;6149346;29;20472;-74
2022/12/15 12:19:37;;;;;;;5.87;4.70;;;;;;;;;;6166161;29;20297;-74
2022/12/15 12:22:46;;;;;;;7.13;4.50;;;;;;;;;;6165972;28;20476;-74
2022/12/15 12:26:01;;;;;;;7.77;5.07;;;;;;;;;;6150629;29;20581;-74
2022/12/15 12:29:17;;;;;;;9.17;4.77;;;;;;;;;;6157056;28;20620;-75
2022/12/15 12:32:28;;;;;;;4.60;4.30;;;;;;;;;;6165573;28;20301;-74
2022/12/15 12:35:39;;;;;;;5.07;4.63;;;;;;;;;;6165687;29;20290;-75
2022/12/15 12:38:47;;;;;;;9.63;4.70;;;;;;;;;;6165449;29;20310;-74
2022/12/15 12:42:00;;;;;;;6.73;4.90;;;;;;;;;;6165802;29;20554;-75
2022/12/15 12:45:10;;;;;;;7.00;4.37;;;;;;;;;;6165042;29;20459;-75
2022/12/15 12:48:21;;;;;;;4.70;4.20;;;;;;;;;;6165144;29;20491;-75
2022/12/15 12:51:30;;;;;;;7.47;3.97;;;;;;;;;;6164623;29;20467;-74
2022/12/15 12:54:46;;;;;;;4.47;4.17;;;;;;;;;;6165074;28;20455;-75
2022/12/15 12:57:54;;;;;;;4.87;4.47;;;;;;;;;;6148146;29;20292;-74
2022/12/15 13:01:16;;;;;;;4.83;4.50;;;;;;;;;;6165447;29;20502;-73
2022/12/15 13:04:37;;;;;;;7.57;5.27;;;;;;;;;;6147788;29;20503;-74
2022/12/15 13:07:54;;;;;;;5.00;4.43;;;;;;;;;;6164740;28;20305;-74
2022/12/15 13:11:38;;;;;;;5.73;4.20;;;;;;;;;;6177835;28;20305;-74
2022/12/15 13:14:45;;;;;;;5.67;4.90;;;;;;;;;;6171476;28;20602;-74
2022/12/15 13:17:58;;;;;;;4.50;4.10;;;;;;;;;;6188971;28;20293;-74
2022/12/15 13:21:35;;;;;;;4.67;4.13;;;;;;;;;;6189546;28;20272;-75
2022/12/15 13:24:47;;;;;;;6.60;4.30;;;;;;;;;;6188467;28;20340;-75
2022/12/15 13:27:59;;;;;;;5.57;4.30;;;;;;;;;;6188686;28;20483;-74
2022/12/15 13:31:29;;;;;;;7.77;4.40;;;;;;;;;;6189739;28;20272;-75
2022/12/15 13:34:38;;;;;;;8.67;4.80;;;;;;;;;;6188714;28;20304;-75
2022/12/15 13:37:49;;;;;;;7.70;4.67;;;;;;;;;;6187898;28;20299;-75
2022/12/15 13:40:56;;;;;;;6.90;4.20;;;;;;;;;;6188896;28;20277;-73
2022/12/15 13:44:12;;;;;;;5.63;4.17;;;;;;;;;;6187095;28;20300;-72
2022/12/15 13:47:23;;;;;;;4.30;4.00;;;;;;;;;;6188227;28;20271;-75
2022/12/15 13:50:33;;;;;;;6.83;4.60;;;;;;;;;;6188799;28;20276;-75
2022/12/15 13:53:42;;;;;;;7.00;4.20;;;;;;;;;;6171119;28;20296;-75
2022/12/15 13:56:53;;;;;;;6.63;4.23;;;;;;;;;;6188953;28;20280;-74
2022/12/15 14:00:04;;;;;;;6.53;4.57;;;;;;;;;;6187992;28;20638;-73
2022/12/15 14:03:15;;;;;;;5.00;4.43;;;;;;;;;;6186942;28;20561;-75
2022/12/15 14:06:20;;;;;;;5.37;4.77;;;;;;;;;;6187532;28;20312;-74
2022/12/15 14:09:29;;;;;;;4.77;4.27;;;;;;;;;;6187304;28;20307;-75
2022/12/15 14:12:39;;;;;;;6.30;4.37;;;;;;;;;;6164085;29;20295;-75
2022/12/15 14:15:47;;;;;;;7.70;4.87;;;;;;;;;;6164074;29;20300;-75
2022/12/15 14:19:11;;;;;;;6.07;4.53;;;;;;;;;;6163574;28;20310;-75
2022/12/15 14:22:22;;;;;;;4.73;4.30;;;;;;;;;;6162630;28;20288;-74
2022/12/15 14:25:32;;;;;;;6.83;4.33;;;;;;;;;;6163424;29;20282;-75
2022/12/15 14:28:41;;;;;;;6.03;5.03;;;;;;;;;;6146368;29;20306;-74
2022/12/15 14:31:50;;;;;;;5.23;4.33;;;;;;;;;;6164142;29;20565;-74
2022/12/15 14:34:55;;;;;;;5.33;4.27;;;;;;;;;;6163248;28;20307;-75
2022/12/15 14:38:05;;;;;;;11.70;5.00;;;;;;;;;;6146420;29;20295;-74
2022/12/15 14:41:19;;;;;;;6.40;4.40;;;;;;;;;;6163485;29;20293;-74
2022/12/15 14:44:30;;;;;;;8.80;4.80;;;;;;;;;;6164177;28;20300;-75
2022/12/15 14:47:51;;;;;;;6.63;5.67;;;;;;;;;;6163635;28;20313;-78
2022/12/15 14:51:17;;;;;;;8.53;5.10;;;;;;;;;;6146830;29;20278;-75
2022/12/15 14:54:34;;;;;;;5.33;4.33;;;;;;;;;;6163226;28;20298;-78
2022/12/15 14:57:41;;;;;;;9.07;4.83;;;;;;;;;;6165977;28;20300;-76
2022/12/15 15:00:51;;;;;;;6.53;4.73;;;;;;;;;;6168950;29;20273;-76
2022/12/15 15:03:58;;;;;;;5.87;4.83;;;;;;;;;;6167485;29;20316;-75
2022/12/15 15:07:05;;;;;;;7.43;5.03;;;;;;;;;;6168196;29;20277;-77
2022/12/15 15:10:22;;;;;;;6.13;4.50;;;;;;;;;;6174904;28;20565;-74
2022/12/15 15:13:33;;;;;;;6.57;4.40;;;;;;;;;;6174831;28;20295;-75
2022/12/15 15:16:45;;;;;;;8.67;5.03;;;;;;;;;;6191474;28;20287;-75
2022/12/15 15:19:52;;;;;;;5.53;5.03;;;;;;;;;;6191856;28;20300;-75
2022/12/15 15:23:11;;;;;;;11.03;4.87;;;;;;;;;;6192129;28;20302;-76
2022/12/15 15:26:17;;;;;;;7.47;4.90;;;;;;;;;;6191993;28;20279;-78
2022/12/15 15:29:37;;;;;;;6.80;4.73;;;;;;;;;;6191782;28;20296;-76
2022/12/15 15:32:53;;;;;;;6.40;4.50;;;;;;;;;;6191401;28;20293;-74
2022/12/15 15:35:59;;;;;;;9.73;4.20;;;;;;;;;;6175006;28;20293;-77
2022/12/15 15:39:11;;;;;;;6.93;4.47;;;;;;;;;;6191474;28;20568;-76
2022/12/15 15:42:16;;;;;;;4.53;3.80;;;;;;;;;;6174144;28;20275;-76
2022/12/15 15:45:22;;;;;;;9.13;4.40;;;;;;;;;;6190296;28;20610;-76
2022/12/15 15:48:31;;;;;;;6.43;4.87;;;;;;;;;;6189401;28;20303;-76
2022/12/15 15:51:37;;;;;;;7.53;4.40;;;;;;;;;;6174810;28;20273;-77
2022/12/15 15:54:44;;;;;;;5.10;4.30;;;;;;;;;;6190822;28;20299;-77
2022/12/15 15:57:49;;;;;;;8.63;4.00;;;;;;;;;;6176215;28;20304;-76
2022/12/15 16:00:54;;;;;;;4.50;4.10;;;;;;;;;;6189961;28;20453;-77
2022/12/15 16:04:01;;;;;;;8.67;4.23;;;;;;;;;;6190272;28;20320;-76
2022/12/15 16:07:06;;;;;;;5.77;4.57;;;;;;;;;;6189099;28;20284;-78
2022/12/15 16:10:14;;;;;;;4.37;4.07;;;;;;;;;;6184781;28;20554;-78
2022/12/15 16:13:21;;;;;;;7.10;3.77;;;;;;;;;;6166474;28;20684;-77
2022/12/15 16:16:32;;;;;;;5.50;4.17;;;;;;;;;;6166357;29;20615;-75
2022/12/15 16:19:38;;;;;;;4.17;3.80;;;;;;;;;;6166153;28;20295;-76
2022/12/15 16:22:45;;;;;;;5.83;4.00;;;;;;;;;;6166172;28;20591;-77
2022/12/15 16:25:52;;;;;;;5.93;4.00;;;;;;;;;;6150116;29;20273;-77
2022/12/15 16:28:58;;;;;;;6.57;4.93;;;;;;;;;;6166293;28;20296;-76
2022/12/15 16:32:04;;;;;;;5.23;4.40;;;;;;;;;;6165825;28;20271;-76
2022/12/15 16:35:11;;;;;;;4.97;4.47;;;;;;;;;;6166297;29;20275;-77
2022/12/15 16:38:21;;;;;;;5.10;4.60;;;;;;;;;;6165702;28;20296;-77
2022/12/15 16:41:26;;;;;;;7.73;5.07;;;;;;;;;;6166279;29;20274;-76
2022/12/15 16:44:31;;;;;;;5.50;4.50;;;;;;;;;;6165765;28;20305;-76
2022/12/15 16:47:38;;;;;;;6.73;4.33;;;;;;;;;;6149132;28;20512;-75
2022/12/15 16:50:47;;;;;;;4.63;4.27;;;;;;;;;;6165849;29;20548;-76
2022/12/15 16:53:52;;;;;;;5.23;4.43;;;;;;;;;;6165421;28;20292;-75
2022/12/15 16:56:58;;;;;;;8.57;5.53;;;;;;;;;;6165865;29;20289;-75
2022/12/15 17:00:14;;;;;;;5.37;4.73;;;;;;;;;;6147849;29;20280;-77
2022/12/15 17:03:21;;;;;;;3.93;3.63;;;;;;;;;;6164607;28;20468;-77
2022/12/15 17:06:29;;;;;;;3.77;3.57;;;;;;;;;;6165394;29;20305;-77
2022/12/15 17:09:36;;;;;;;5.23;4.00;;;;;;;;;;6167725;28;20313;-76
2022/12/15 17:12:43;;;;;;;8.00;4.53;;;;;;;;;;6156366;28;20472;-76
2022/12/15 17:15:48;;;;;;;5.13;3.47;;;;;;;;;;6188646;28;20272;-75
2022/12/15 17:18:53;;;;;;;4.33;3.93;;;;;;;;;;6188690;28;20295;-75
2022/12/15 17:22:00;;;;;;;4.90;4.30;;;;;;;;;;6188889;28;20297;-76
2022/12/15 17:25:06;;;;;;;3.60;3.40;;;;;;;;;;6187820;28;20504;-76
2022/12/15 17:28:16;;;;;;;3.63;3.33;;;;;;;;;;6188382;28;20316;-77
2022/12/15 17:31:25;;;;;;;4.70;2.60;;;;;;;;;;6188900;28;20367;-81
2022/12/15 17:34:38;;;;;;;3.40;3.20;;;;;;;;;;6188522;28;20497;-76
2022/12/15 17:37:45;;;;;;;3.30;3.10;;;;;;;;;;6188126;28;20580;-76
2022/12/15 17:40:52;;;;;;;4.10;3.70;;;;;;;;;;6188075;28;20472;-75
2022/12/15 17:43:57;;;;;;;3.40;3.20;;;;;;;;;;6171007;28;20617;-79
2022/12/15 17:47:23;;;;;;;3.97;3.57;;;;;;;;;;6157305;28;20393;-76
2022/12/15 17:50:28;;;;;;;5.43;4.93;;;;;;;;;;6188164;28;20395;-79
2022/12/15 17:53:34;;;;;;;4.43;4.23;;;;;;;;;;6170797;28;20307;-76
2022/12/15 17:56:41;;;;;;;3.20;2.90;;;;;;;;;;6188200;28;20298;-77
2022/12/15 17:59:47;;;;;;;3.33;3.13;;;;;;;;;;6187471;28;20398;-77
2022/12/15 18:02:52;;;;;;;3.20;3.10;;;;;;;;;;6188223;28;20307;-78
2022/12/15 18:05:58;;;;;;;3.20;3.10;;;;;;;;;;6188018;28;20302;-78
2022/12/15 18:09:05;;;;;;;3.37;3.27;;;;;;;;;;6187811;28;20304;-77
2022/12/15 18:12:18;;;;;;;3.83;3.53;;;;;;;;;;6165370;28;20564;-77
2022/12/15 18:15:26;;;;;;;3.27;3.07;;;;;;;;;;6163894;29;20284;-77
2022/12/15 18:18:31;;;;;;;3.20;3.10;;;;;;;;;;6164047;29;20485;-85
2022/12/15 18:21:38;;;;;;;2.83;2.77;;;;;;;;;;6152543;29;20285;-82
2022/12/15 18:24:45;;;;;;;2.77;2.67;;;;;;;;;;6168891;29;20303;-78
2022/12/15 18:27:53;;;;;;;2.60;2.40;;;;;;;;;;6162875;28;20300;-78
2022/12/15 18:31:03;;;;;;;8.23;2.90;;;;;;;;;;6147318;29;20276;-77
2022/12/15 18:34:12;;;;;;;2.67;2.67;;;;;;;;;;6161629;29;20596;-77
2022/12/15 18:37:19;;;;;;;2.73;2.63;;;;;;;;;;6163220;28;20295;-76
2022/12/15 18:40:27;;;;;;;2.73;2.63;;;;;;;;;;6163453;29;20276;-76
2022/12/15 18:43:34;;;;;;;3.27;3.00;;;;;;;;;;6146163;29;20465;-74
2022/12/15 18:46:39;;;;;;;3.27;2.80;;;;;;;;;;6163496;29;20430;-75
2022/12/15 18:49:51;;;;;;;2.67;2.57;;;;;;;;;;6162931;29;20300;-76
2022/12/15 18:52:59;;;;;;;2.93;2.73;;;;;;;;;;6162892;28;20292;-78
2022/12/15 18:56:07;;;;;;;3.00;2.90;;;;;;;;;;6163736;29;20277;-75
2022/12/15 18:59:14;;;;;;;2.90;2.77;;;;;;;;;;6163147;28;20309;-78
2022/12/15 19:02:21;;;;;;;6.97;4.83;;;;;;;;;;6146348;29;20353;-76
2022/12/15 19:05:28;;;;;;;7.10;5.70;;;;;;;;;;6163687;29;20303;-79
2022/12/15 19:08:39;;;;;;;4.43;4.03;;;;;;;;;;6162844;28;20296;-76
2022/12/15 19:12:16;;;;;;;3.80;3.50;;;;;;;;;;6182011;28;20266;-76
2022/12/15 19:15:22;;;;;;;3.40;3.30;;;;;;;;;;6169320;28;20272;-78
2022/12/15 19:25:28;;;;;;;3.20;2.87;;;;;;;;;;6112061;29;20294;-78
2022/12/15 19:28:35;;;;;;;3.13;2.97;;;;;;;;;;6113397;29;20321;-77
2022/12/15 19:31:41;;;;;;;3.10;3.00;;;;;;;;;;6186253;28;20304;-77
2022/12/15 19:34:46;;;;;;;3.00;2.77;;;;;;;;;;6186535;28;20339;-78
2022/12/15 19:37:53;;;;;;;3.10;2.90;;;;;;;;;;6186822;28;20304;-75
2022/12/15 19:41:00;;;;;;;7.33;3.33;;;;;;;;;;6187283;28;20271;-75
2022/12/15 19:44:11;;;;;;;3.90;3.00;;;;;;;;;;6190118;28;20304;-77
2022/12/15 19:47:16;;;;;;;5.33;3.30;;;;;;;;;;6190736;28;20291;-75
2022/12/15 19:50:23;;;;;;;6.27;4.13;;;;;;;;;;6190844;28;20281;-76
2022/12/15 19:53:29;;;;;;;4.40;4.00;;;;;;;;;;6189925;28;20305;-76
2022/12/15 19:56:35;;;;;;;4.70;4.30;;;;;;;;;;6191197;28;20277;-75
2022/12/15 19:59:41;;;;;;;4.40;4.00;;;;;;;;;;6190565;28;20313;-75
2022/12/15 20:02:47;;;;;;;5.73;3.90;;;;;;;;;;6190085;28;20303;-75
2022/12/15 20:05:53;;;;;;;5.07;4.70;;;;;;;;;;6190695;28;20303;-76
2022/12/15 20:09:00;;;;;;;11.07;3.97;;;;;;;;;;6173254;28;20304;-76
2022/12/15 20:12:09;;;;;;;9.57;5.53;;;;;;;;;;6168382;28;20384;-77
2022/12/15 20:15:18;;;;;;;9.43;5.87;;;;;;;;;;6166774;29;20268;-75
2022/12/15 20:18:23;;;;;;;10.47;6.50;;;;;;;;;;6149070;29;20304;-75
2022/12/15 20:21:33;;;;;;;10.77;6.70;;;;;;;;;;6166873;29;20275;-76
2022/12/15 20:24:38;;;;;;;10.60;6.17;;;;;;;;;;6166199;28;20301;-76
2022/12/15 20:27:43;;;;;;;12.40;7.13;;;;;;;;;;6165856;29;20309;-75
2022/12/15 20:30:50;;;;;;;9.30;5.67;;;;;;;;;;6166415;29;20268;-74
2022/12/15 20:33:55;;;;;;;11.43;6.67;;;;;;;;;;6165845;28;20297;-76
2022/12/15 20:37:01;;;;;;;11.07;6.57;;;;;;;;;;6165624;29;20276;-76
2022/12/15 20:40:21;;;;;;;9.00;6.93;;;;;;;;;;6166208;29;20295;-75
2022/12/15 20:43:27;;;;;;;15.17;7.63;;;;;;;;;;6165570;28;20293;-76
2022/12/15 20:46:34;;;;;;;7.10;6.40;;;;;;;;;;6165922;29;20564;-74
2022/12/15 20:49:39;;;;;;;10.67;6.70;;;;;;;;;;6166423;28;20305;-76
2022/12/15 20:52:44;;;;;;;14.63;7.33;;;;;;;;;;6165332;28;20395;-76
2022/12/15 20:55:50;;;;;;;16.87;8.27;;;;;;;;;;6165905;29;20270;-76
2022/12/15 20:58:56;;;;;;;11.07;7.20;;;;;;;;;;6164693;28;20303;-76
2022/12/15 21:02:03;;;;;;;12.90;7.47;;;;;;;;;;6165220;29;20276;-76
2022/12/15 21:05:16;;;;;;;12.97;7.20;;;;;;;;;;6165675;29;20466;-75
2022/12/15 21:08:23;;;;;;;11.77;6.60;;;;;;;;;;6164227;28;20425;-76
2022/12/15 21:11:32;;;;;;;11.97;7.03;;;;;;;;;;6181860;28;20268;-76
2022/12/15 21:14:37;;;;;;;11.10;6.17;;;;;;;;;;6188711;28;20317;-76
2022/12/15 21:17:44;;;;;;;6.80;5.60;;;;;;;;;;6188673;28;20299;-76
2022/12/15 21:20:53;;;;;;;6.93;5.33;;;;;;;;;;6188901;28;20304;-75
2022/12/15 21:23:58;;;;;;;6.20;5.10;;;;;;;;;;6188749;28;20319;-76